Time;durP1;ratioP1;P1;durP2;ratioP2;P2;SDS_P1;SDS_P2;PMS_P1;PMS_P2;Temp;Humidity;BMP_temperature;BMP_pressure;BME280_temperature;BME280_humidity;BME280_pressure;Samples;Min_cycle;Max_cycle;Signal;HPM_P1;HPM_P2
2023/07/26 00:00:39;;;;;;;8.38;3.70;;;16.20;99.90;;;;;;5005869;28;20763;-84
2023/07/26 00:03:07;;;;;;;6.75;3.95;;;16.10;99.90;;;;;;5012733;28;20661;-84
2023/07/26 00:05:35;;;;;;;6.03;3.85;;;15.90;99.90;;;;;;5026224;28;20554;-84
2023/07/26 00:08:04;;;;;;;13.52;5.00;;;15.90;99.90;;;;;;5022300;28;20193;-84
2023/07/26 00:10:32;;;;;;;8.63;4.72;;;15.80;99.90;;;;;;5026138;28;20217;-84
2023/07/26 00:12:59;;;;;;;5.45;3.90;;;15.70;99.90;;;;;;5025050;28;20194;-85
2023/07/26 00:15:27;;;;;;;7.30;4.53;;;15.50;99.90;;;;;;5024694;28;20193;-84
2023/07/26 00:17:55;;;;;;;5.82;4.40;;;15.70;99.90;;;;;;5026237;28;20186;-85
2023/07/26 00:20:23;;;;;;;4.78;3.95;;;15.80;99.90;;;;;;5025046;28;20243;-83
2023/07/26 00:22:51;;;;;;;5.53;3.53;;;15.80;99.90;;;;;;5021438;28;20191;-84
2023/07/26 00:25:19;;;;;;;6.03;4.07;;;15.80;99.90;;;;;;5023728;28;20212;-85
2023/07/26 00:27:46;;;;;;;6.82;3.55;;;15.80;99.90;;;;;;5031720;28;20186;-83
2023/07/26 00:30:15;;;;;;;7.90;4.10;;;15.80;99.90;;;;;;5033693;28;20243;-84
2023/07/26 00:32:43;;;;;;;5.80;3.75;;;15.80;99.90;;;;;;5025246;28;20551;-84
2023/07/26 00:35:20;;;;;;;6.03;3.72;;;15.80;99.90;;;;;;5024623;28;20678;-85
2023/07/26 00:37:50;;;;;;;7.15;3.53;;;15.90;99.90;;;;;;5014369;28;20201;-83
2023/07/26 00:40:17;;;;;;;6.63;3.30;;;15.90;99.90;;;;;;5035710;28;20235;-83
2023/07/26 00:42:45;;;;;;;7.00;3.72;;;16.00;99.90;;;;;;5016201;28;20289;-84
2023/07/26 00:45:13;;;;;;;6.53;3.80;;;16.00;99.90;;;;;;5018892;28;20217;-83
2023/07/26 00:47:41;;;;;;;7.65;4.07;;;16.00;99.90;;;;;;5022957;28;20292;-85
2023/07/26 00:50:09;;;;;;;5.25;3.35;;;15.90;99.90;;;;;;5025591;28;20189;-83
2023/07/26 00:52:39;;;;;;;4.55;3.15;;;15.90;99.90;;;;;;5015947;28;20244;-85
2023/07/26 00:55:07;;;;;;;5.43;3.38;;;15.70;99.90;;;;;;4995320;28;20199;-83
2023/07/26 00:57:36;;;;;;;6.78;3.88;;;15.70;99.90;;;;;;5000434;28;20239;-83
2023/07/26 01:00:05;;;;;;;8.73;3.67;;;15.60;99.90;;;;;;5025605;28;20269;-84
2023/07/26 01:02:33;;;;;;;7.57;4.57;;;15.40;99.90;;;;;;5024296;28;20205;-84
2023/07/26 01:05:03;;;;;;;7.05;4.82;;;15.10;99.90;;;;;;5026140;28;20201;-83
2023/07/26 01:07:35;;;;;;;5.65;3.80;;;15.20;99.90;;;;;;5025880;28;20194;-84
2023/07/26 01:10:16;;;;;;;7.38;4.18;;;15.20;99.90;;;;;;5025767;28;20269;-84
2023/07/26 01:12:50;;;;;;;9.68;4.43;;;15.30;99.90;;;;;;5025767;28;20196;-84
2023/07/26 01:15:29;;;;;;;5.95;3.72;;;15.40;99.90;;;;;;5021918;28;20561;-83
2023/07/26 01:18:16;;;;;;;6.43;4.03;;;15.50;99.90;;;;;;5023427;28;20596;-83
2023/07/26 01:20:44;;;;;;;9.52;4.53;;;15.50;99.90;;;;;;5022561;28;20197;-84
2023/07/26 01:23:12;;;;;;;5.35;3.75;;;15.60;99.90;;;;;;5025216;28;20247;-84
2023/07/26 01:25:39;;;;;;;7.05;3.60;;;15.60;99.90;;;;;;5025800;28;20202;-84
2023/07/26 01:28:07;;;;;;;5.57;3.47;;;15.70;99.90;;;;;;5109920;28;20194;-84
2023/07/26 01:30:36;;;;;;;7.30;3.65;;;15.60;99.90;;;;;;5025183;28;20293;-84
2023/07/26 01:33:07;;;;;;;7.05;4.18;;;15.40;99.90;;;;;;5025361;28;20246;-84
2023/07/26 01:35:38;;;;;;;5.68;3.60;;;15.10;99.90;;;;;;5025158;28;20206;-83
2023/07/26 01:38:07;;;;;;;6.93;4.45;;;15.30;99.90;;;;;;5025505;28;20186;-84
2023/07/26 01:40:35;;;;;;;6.47;4.68;;;15.40;99.90;;;;;;5040177;28;20198;-84
2023/07/26 01:43:03;;;;;;;6.35;4.40;;;15.30;99.90;;;;;;5021069;28;20554;-83
2023/07/26 01:45:31;;;;;;;5.85;4.20;;;15.30;99.90;;;;;;5027509;28;20969;-83
2023/07/26 01:48:00;;;;;;;6.47;3.97;;;15.40;99.90;;;;;;5034773;28;20190;-84
2023/07/26 01:50:27;;;;;;;9.90;5.00;;;15.40;99.90;;;;;;5028778;28;20210;-84
2023/07/26 01:52:55;;;;;;;7.22;4.35;;;15.20;99.90;;;;;;5025553;28;20195;-84
2023/07/26 01:55:23;;;;;;;7.70;5.13;;;15.30;99.90;;;;;;5028740;28;20224;-83
2023/07/26 01:57:51;;;;;;;11.00;5.85;;;15.30;99.90;;;;;;5027688;28;20307;-84
2023/07/26 02:00:18;;;;;;;9.48;5.38;;;15.10;99.90;;;;;;5026797;28;20194;-83
2023/07/26 02:02:46;;;;;;;8.40;5.00;;;15.20;99.90;;;;;;5028562;28;20186;-84
2023/07/26 02:05:16;;;;;;;6.15;4.07;;;15.10;99.90;;;;;;5024887;28;20204;-84
2023/07/26 02:07:44;;;;;;;7.93;5.07;;;15.20;99.90;;;;;;5043886;28;20226;-84
2023/07/26 02:10:12;;;;;;;7.80;4.88;;;15.40;99.90;;;;;;5010726;28;20216;-84
2023/07/26 02:12:40;;;;;;;8.07;5.50;;;15.40;99.90;;;;;;5035175;28;20312;-85
2023/07/26 02:15:08;;;;;;;7.13;4.20;;;15.40;99.90;;;;;;5017513;28;20190;-84
2023/07/26 02:17:36;;;;;;;9.80;4.97;;;15.40;99.90;;;;;;5028040;28;20190;-84
2023/07/26 02:20:04;;;;;;;5.00;3.85;;;15.40;99.90;;;;;;5026542;28;20190;-84
2023/07/26 02:22:32;;;;;;;7.10;4.00;;;15.50;99.90;;;;;;5026358;28;20213;-84
2023/07/26 02:25:00;;;;;;;6.93;4.10;;;15.50;99.90;;;;;;5035435;28;20214;-83
2023/07/26 02:27:27;;;;;;;5.20;3.90;;;15.50;99.90;;;;;;5027878;28;20193;-84
2023/07/26 02:29:56;;;;;;;6.90;4.75;;;15.60;99.90;;;;;;5032883;28;20198;-83
2023/07/26 02:32:23;;;;;;;8.90;4.80;;;15.50;99.90;;;;;;5026820;28;20237;-83
2023/07/26 02:34:51;;;;;;;9.50;4.82;;;15.50;99.90;;;;;;5043251;28;20972;-84
2023/07/26 02:37:19;;;;;;;11.13;5.35;;;15.50;99.90;;;;;;5026349;28;20598;-84
2023/07/26 02:39:48;;;;;;;8.13;4.50;;;15.40;99.90;;;;;;5028083;28;20279;-84
2023/07/26 02:42:16;;;;;;;7.78;5.00;;;15.40;99.90;;;;;;5026379;28;20198;-83
2023/07/26 02:44:46;;;;;;;7.88;5.03;;;15.40;99.90;;;;;;5043083;28;20298;-84
2023/07/26 02:47:13;;;;;;;6.80;4.70;;;15.40;99.90;;;;;;5027361;28;20276;-84
2023/07/26 02:49:41;;;;;;;7.35;4.18;;;15.40;99.90;;;;;;5007224;28;20207;-83
2023/07/26 02:52:09;;;;;;;6.10;4.07;;;15.40;99.90;;;;;;5039640;28;20259;-83
2023/07/26 02:54:36;;;;;;;5.07;3.78;;;15.50;99.90;;;;;;5027493;28;20240;-83
2023/07/26 02:57:05;;;;;;;6.88;4.75;;;15.40;99.90;;;;;;5025184;28;20225;-84
2023/07/26 02:59:33;;;;;;;10.80;5.15;;;15.40;99.90;;;;;;5009537;28;20302;-83
2023/07/26 03:02:00;;;;;;;6.13;4.07;;;15.40;99.90;;;;;;5026266;28;20301;-83
2023/07/26 03:04:28;;;;;;;6.68;3.83;;;15.40;99.90;;;;;;5027436;28;20541;-84
2023/07/26 03:06:56;;;;;;;7.20;4.35;;;15.40;99.90;;;;;;5027014;28;20495;-84
2023/07/26 03:09:24;;;;;;;6.15;3.90;;;15.40;99.90;;;;;;5027178;28;20251;-84
2023/07/26 03:11:51;;;;;;;6.85;4.15;;;15.40;99.90;;;;;;5022152;28;20636;-85
2023/07/26 03:14:19;;;;;;;4.97;4.05;;;15.40;99.90;;;;;;5026144;28;20282;-84
2023/07/26 03:16:47;;;;;;;4.97;3.50;;;15.40;99.90;;;;;;5029448;28;20190;-83
2023/07/26 03:19:15;;;;;;;7.25;4.25;;;15.50;99.90;;;;;;5025797;28;20686;-84
2023/07/26 03:21:42;;;;;;;7.22;4.00;;;15.50;99.90;;;;;;5025935;28;20289;-85
2023/07/26 03:24:10;;;;;;;6.65;4.25;;;15.50;99.90;;;;;;5026901;28;20201;-83
2023/07/26 03:26:38;;;;;;;7.90;4.00;;;15.40;99.90;;;;;;5025674;28;20655;-84
2023/07/26 03:29:05;;;;;;;4.70;3.80;;;15.40;99.90;;;;;;5026941;28;20189;-84
2023/07/26 03:31:34;;;;;;;7.07;4.00;;;15.50;99.90;;;;;;5024512;28;20244;-84
2023/07/26 03:34:01;;;;;;;6.65;4.28;;;15.50;99.90;;;;;;5009292;28;20256;-84
2023/07/26 03:36:29;;;;;;;6.88;3.95;;;15.50;99.90;;;;;;5035880;28;20651;-85
2023/07/26 03:38:57;;;;;;;5.93;3.95;;;15.50;99.90;;;;;;5026350;28;20222;-84
2023/07/26 03:41:25;;;;;;;6.90;4.28;;;15.50;99.90;;;;;;5009121;28;20207;-83
2023/07/26 03:43:53;;;;;;;5.82;3.50;;;15.50;99.90;;;;;;5023170;28;20253;-84
2023/07/26 03:46:21;;;;;;;5.80;4.00;;;15.50;99.90;;;;;;5023669;28;20227;-84
2023/07/26 03:48:49;;;;;;;6.15;4.25;;;15.50;99.90;;;;;;5026420;28;20592;-84
2023/07/26 03:51:18;;;;;;;6.47;4.40;;;15.50;99.90;;;;;;5018124;28;20209;-84
2023/07/26 03:53:46;;;;;;;6.78;4.10;;;15.50;99.90;;;;;;5022428;28;20198;-83
2023/07/26 03:56:14;;;;;;;6.15;3.83;;;15.50;99.90;;;;;;5022060;28;20643;-84
2023/07/26 03:58:41;;;;;;;8.35;3.80;;;15.50;99.90;;;;;;5025140;28;20285;-84
2023/07/26 04:01:10;;;;;;;5.50;3.85;;;15.50;99.90;;;;;;5024961;28;20202;-84
2023/07/26 04:03:38;;;;;;;6.53;3.80;;;15.40;99.90;;;;;;5024918;28;20294;-84
2023/07/26 04:06:12;;;;;;;5.00;3.72;;;15.40;99.90;;;;;;5026624;28;20178;-84
2023/07/26 04:08:40;;;;;;;6.07;3.97;;;15.40;99.90;;;;;;5040875;28;20182;-83
2023/07/26 04:11:08;;;;;;;6.60;4.05;;;15.40;99.90;;;;;;5025251;28;20254;-84
2023/07/26 04:13:36;;;;;;;6.63;3.90;;;15.40;99.90;;;;;;5026176;28;20182;-84
2023/07/26 04:16:15;;;;;;;6.15;3.90;;;15.40;99.90;;;;;;5026302;28;20193;-84
2023/07/26 04:18:43;;;;;;;6.65;3.30;;;15.50;99.90;;;;;;5018891;28;20182;-83
2023/07/26 04:21:16;;;;;;;7.57;3.75;;;15.40;99.90;;;;;;5026144;27;20182;-84
2023/07/26 04:23:45;;;;;;;5.10;3.50;;;15.40;99.90;;;;;;5019683;28;20202;-84
2023/07/26 04:26:13;;;;;;;5.55;3.20;;;15.50;99.90;;;;;;5000365;28;20192;-85
2023/07/26 04:28:41;;;;;;;6.03;3.30;;;15.50;99.90;;;;;;5024846;28;20186;-83
2023/07/26 04:31:09;;;;;;;5.13;3.42;;;15.50;99.90;;;;;;5033527;28;20697;-84
2023/07/26 04:33:37;;;;;;;3.95;3.08;;;15.50;99.90;;;;;;5021076;28;20187;-84
2023/07/26 04:36:05;;;;;;;8.13;3.35;;;15.40;99.90;;;;;;5004161;28;20188;-84
2023/07/26 04:38:33;;;;;;;5.07;3.28;;;15.40;99.90;;;;;;5011883;28;20696;-84
2023/07/26 04:41:00;;;;;;;5.03;3.42;;;15.40;99.90;;;;;;5019829;28;20209;-84
2023/07/26 04:43:28;;;;;;;5.00;3.35;;;15.40;99.90;;;;;;5019883;28;20235;-83
2023/07/26 04:45:55;;;;;;;5.05;3.50;;;15.30;99.90;;;;;;5026410;28;20568;-83
2023/07/26 04:48:23;;;;;;;4.82;3.50;;;15.40;99.90;;;;;;5021703;28;20606;-84
2023/07/26 04:50:52;;;;;;;7.55;3.78;;;15.50;99.90;;;;;;5022349;28;20255;-84
2023/07/26 04:53:20;;;;;;;5.18;2.85;;;15.40;99.90;;;;;;5026007;28;20206;-84
2023/07/26 04:55:52;;;;;;;5.50;2.88;;;15.50;99.90;;;;;;5026089;28;20290;-83
2023/07/26 04:58:20;;;;;;;4.38;3.25;;;15.50;99.90;;;;;;5024573;28;20197;-84
2023/07/26 05:00:48;;;;;;;4.78;2.63;;;15.50;99.90;;;;;;5038195;28;20274;-83
2023/07/26 05:03:16;;;;;;;4.47;3.25;;;15.60;99.90;;;;;;5024969;28;20218;-85
2023/07/26 05:05:50;;;;;;;5.85;3.03;;;15.60;99.90;;;;;;5032228;28;20216;-83
2023/07/26 05:08:20;;;;;;;4.60;2.95;;;15.60;99.90;;;;;;5025432;28;20195;-83
2023/07/26 05:10:51;;;;;;;5.63;2.90;;;15.60;99.90;;;;;;5021036;28;20683;-83
2023/07/26 05:13:19;;;;;;;5.88;3.05;;;15.60;99.90;;;;;;5021957;28;20203;-85
2023/07/26 05:15:47;;;;;;;5.68;3.17;;;15.60;99.90;;;;;;5025466;28;20186;-82
2023/07/26 05:18:15;;;;;;;4.07;3.20;;;15.70;99.90;;;;;;5024695;28;20809;-85
2023/07/26 05:20:43;;;;;;;8.05;3.00;;;15.60;99.90;;;;;;5027693;28;20202;-85
2023/07/26 05:23:11;;;;;;;3.17;2.58;;;15.70;99.90;;;;;;5027119;28;20859;-85
2023/07/26 05:25:40;;;;;;;5.03;3.30;;;15.70;99.90;;;;;;5029104;28;20185;-85
2023/07/26 05:28:08;;;;;;;4.65;2.90;;;15.70;99.90;;;;;;5027645;28;20182;-84
2023/07/26 05:30:39;;;;;;;4.28;2.53;;;15.70;99.90;;;;;;5027442;28;20202;-84
2023/07/26 05:33:08;;;;;;;6.43;3.65;;;15.70;99.90;;;;;;5011220;28;20893;-85
2023/07/26 05:35:37;;;;;;;4.20;2.95;;;15.70;99.90;;;;;;5025117;28;20606;-84
2023/07/26 05:38:05;;;;;;;4.10;2.80;;;15.70;99.90;;;;;;5029236;28;20254;-84
2023/07/26 05:40:33;;;;;;;5.53;2.90;;;15.70;99.90;;;;;;5029278;28;20190;-85
2023/07/26 05:43:01;;;;;;;4.00;3.00;;;15.60;99.90;;;;;;5025495;28;20183;-84
2023/07/26 05:45:29;;;;;;;8.25;2.90;;;15.70;99.90;;;;;;5027600;28;20568;-85
2023/07/26 05:47:57;;;;;;;6.45;2.60;;;15.70;99.90;;;;;;5029177;28;20205;-85
2023/07/26 05:50:24;;;;;;;7.10;3.40;;;15.60;99.90;;;;;;5028853;28;20210;-84
2023/07/26 05:52:52;;;;;;;4.30;3.08;;;15.60;99.90;;;;;;5026136;28;20209;-85
2023/07/26 05:55:20;;;;;;;3.53;2.45;;;15.70;99.90;;;;;;5028935;28;20190;-85
2023/07/26 05:57:48;;;;;;;4.70;2.80;;;15.70;99.90;;;;;;5034767;28;20229;-85
2023/07/26 06:00:17;;;;;;;4.28;2.90;;;15.70;99.90;;;;;;5027989;28;20621;-84
2023/07/26 06:02:45;;;;;;;5.75;2.72;;;15.80;99.90;;;;;;5011621;28;20202;-84
2023/07/26 06:05:13;;;;;;;5.10;3.10;;;15.80;99.90;;;;;;5026306;28;20206;-84
2023/07/26 06:07:41;;;;;;;5.30;2.95;;;15.80;99.90;;;;;;5023435;28;20202;-84
2023/07/26 06:10:09;;;;;;;3.08;2.65;;;15.80;99.90;;;;;;5023261;28;20247;-84
2023/07/26 06:12:37;;;;;;;4.88;3.17;;;15.80;99.90;;;;;;5010596;28;20212;-84
2023/07/26 06:15:06;;;;;;;4.90;3.03;;;15.90;99.90;;;;;;5028629;28;20681;-84
2023/07/26 06:17:33;;;;;;;5.65;2.70;;;15.90;99.90;;;;;;5022828;28;20195;-85
2023/07/26 06:20:01;;;;;;;4.65;2.63;;;15.90;99.90;;;;;;5026305;28;20188;-85
2023/07/26 06:22:29;;;;;;;4.53;3.03;;;15.90;99.90;;;;;;5027230;28;20187;-84
2023/07/26 06:24:57;;;;;;;7.88;3.33;;;15.90;99.90;;;;;;5028187;28;20190;-84
2023/07/26 06:27:28;;;;;;;7.78;3.30;;;16.00;99.90;;;;;;5023860;28;20293;-84
2023/07/26 06:29:57;;;;;;;5.05;2.55;;;16.10;99.90;;;;;;5009073;28;20175;-84
2023/07/26 06:32:25;;;;;;;5.90;2.53;;;16.10;99.90;;;;;;5007564;28;20206;-84
2023/07/26 06:34:53;;;;;;;6.28;3.42;;;16.10;99.90;;;;;;5019997;28;20231;-85
2023/07/26 06:37:20;;;;;;;3.17;2.25;;;16.00;99.90;;;;;;5026604;28;20239;-83
2023/07/26 06:39:48;;;;;;;2.65;2.38;;;15.90;99.90;;;;;;5026599;28;20185;-84
2023/07/26 06:42:16;;;;;;;6.45;2.72;;;16.00;99.90;;;;;;5042763;28;20523;-82
2023/07/26 06:44:44;;;;;;;7.88;3.08;;;16.10;99.90;;;;;;5042681;28;20755;-84
2023/07/26 06:47:12;;;;;;;5.28;2.60;;;16.10;99.90;;;;;;5027756;28;20626;-84
2023/07/26 06:49:39;;;;;;;4.28;2.60;;;16.00;99.90;;;;;;5027815;28;20332;-84
2023/07/26 06:52:07;;;;;;;5.28;2.63;;;16.10;99.90;;;;;;5028493;28;20318;-84
2023/07/26 06:54:36;;;;;;;6.78;2.78;;;16.10;99.90;;;;;;5043390;28;20690;-84
2023/07/26 06:57:04;;;;;;;3.83;2.97;;;16.10;99.90;;;;;;5028422;28;20718;-85
2023/07/26 06:59:32;;;;;;;3.97;2.38;;;16.10;99.90;;;;;;5043316;28;20265;-84
2023/07/26 07:02:00;;;;;;;5.07;2.55;;;16.20;99.90;;;;;;5043351;28;20189;-84
2023/07/26 07:04:28;;;;;;;4.97;2.85;;;16.20;99.90;;;;;;5043110;28;20304;-84
2023/07/26 07:06:55;;;;;;;3.70;2.45;;;16.30;99.90;;;;;;5028064;28;20189;-85
2023/07/26 07:09:24;;;;;;;5.00;2.17;;;16.20;99.90;;;;;;5028132;28;20588;-84
2023/07/26 07:11:51;;;;;;;3.35;1.95;;;16.20;99.90;;;;;;5026867;28;20202;-84
2023/07/26 07:14:20;;;;;;;4.78;2.20;;;16.30;99.90;;;;;;5044200;28;20174;-84
2023/07/26 07:16:48;;;;;;;4.47;2.30;;;16.30;99.90;;;;;;5026933;28;20668;-85
2023/07/26 07:19:16;;;;;;;3.15;2.35;;;16.50;99.90;;;;;;5028059;28;20190;-85
2023/07/26 07:21:44;;;;;;;3.08;2.28;;;16.60;99.90;;;;;;5042696;28;20186;-84
2023/07/26 07:24:12;;;;;;;4.70;2.22;;;16.70;99.90;;;;;;5027904;28;20603;-84
2023/07/26 07:26:40;;;;;;;3.55;1.90;;;16.50;99.90;;;;;;5043064;28;20190;-84
2023/07/26 07:29:08;;;;;;;2.75;1.63;;;16.50;99.90;;;;;;5042779;27;20250;-85
2023/07/26 07:31:36;;;;;;;3.50;2.03;;;16.60;99.90;;;;;;5042796;28;20659;-84
2023/07/26 07:34:05;;;;;;;3.17;2.05;;;16.70;99.90;;;;;;5026352;28;20218;-85
2023/07/26 07:36:32;;;;;;;2.95;1.80;;;16.70;99.90;;;;;;5043547;28;20188;-84
2023/07/26 07:39:00;;;;;;;3.00;2.00;;;16.70;99.90;;;;;;5028023;28;20273;-84
2023/07/26 07:41:28;;;;;;;4.28;2.15;;;16.80;99.90;;;;;;5027732;28;20258;-85
2023/07/26 07:43:55;;;;;;;5.53;1.90;;;16.90;99.90;;;;;;5027051;28;20226;-84
2023/07/26 07:46:28;;;;;;;3.50;2.28;;;17.00;99.90;;;;;;5042464;28;20186;-83
2023/07/26 07:48:56;;;;;;;2.53;1.70;;;17.00;99.90;;;;;;5027508;28;20170;-84
2023/07/26 07:51:24;;;;;;;2.72;2.10;;;17.10;99.90;;;;;;5009702;28;20209;-85
2023/07/26 07:53:52;;;;;;;6.15;2.33;;;17.10;99.90;;;;;;5027272;28;20205;-84
2023/07/26 07:56:19;;;;;;;5.30;2.30;;;17.00;99.90;;;;;;5025926;28;20186;-83
2023/07/26 07:58:47;;;;;;;5.25;2.25;;;16.90;99.90;;;;;;5027471;28;20601;-84
2023/07/26 08:01:15;;;;;;;4.72;2.33;;;16.90;99.90;;;;;;5027362;28;20531;-85
2023/07/26 08:03:42;;;;;;;2.95;2.13;;;16.90;99.90;;;;;;5027585;28;20263;-84
2023/07/26 08:06:11;;;;;;;3.75;2.60;;;16.80;99.90;;;;;;5043167;28;20198;-84
2023/07/26 08:08:40;;;;;;;4.53;2.55;;;16.80;99.90;;;;;;5025707;28;20200;-84
2023/07/26 08:11:08;;;;;;;4.05;2.38;;;16.80;99.90;;;;;;5042309;28;20220;-86
2023/07/26 08:13:36;;;;;;;6.03;2.47;;;16.70;99.90;;;;;;5027079;28;20198;-83
2023/07/26 08:16:03;;;;;;;4.45;2.38;;;16.60;99.90;;;;;;5027092;28;20726;-84
2023/07/26 08:18:31;;;;;;;3.33;2.20;;;16.60;99.90;;;;;;5027040;28;20262;-85
2023/07/26 08:20:59;;;;;;;3.40;2.10;;;16.70;99.90;;;;;;5027131;28;20201;-85
2023/07/26 08:23:27;;;;;;;3.70;2.38;;;16.80;99.90;;;;;;5027883;28;20192;-84
2023/07/26 08:25:55;;;;;;;3.72;2.05;;;16.80;99.90;;;;;;5042059;28;20194;-84
2023/07/26 08:28:23;;;;;;;4.82;2.58;;;16.90;99.90;;;;;;5026936;28;20202;-84
2023/07/26 08:30:50;;;;;;;2.58;2.03;;;16.90;99.90;;;;;;5026863;28;20190;-83
2023/07/26 08:33:19;;;;;;;5.60;2.92;;;16.90;99.90;;;;;;5041943;28;20217;-84
2023/07/26 08:35:47;;;;;;;2.90;2.10;;;16.90;99.90;;;;;;5026855;28;20209;-84
2023/07/26 08:38:14;;;;;;;5.72;2.30;;;16.80;99.90;;;;;;5041892;28;20289;-84
2023/07/26 08:40:50;;;;;;;3.35;2.17;;;16.90;99.90;;;;;;5026017;28;20182;-85
2023/07/26 08:43:21;;;;;;;4.18;2.10;;;16.80;99.90;;;;;;5041389;28;20182;-84
2023/07/26 08:45:50;;;;;;;7.15;2.05;;;16.90;99.90;;;;;;5026802;28;20178;-84
2023/07/26 08:48:21;;;;;;;3.10;2.30;;;16.90;99.90;;;;;;5029611;28;20922;-84
2023/07/26 08:50:49;;;;;;;4.97;2.25;;;16.90;99.90;;;;;;5026705;28;20190;-84
2023/07/26 08:53:19;;;;;;;6.63;2.35;;;16.90;99.90;;;;;;5024963;28;20205;-84
2023/07/26 08:55:48;;;;;;;2.50;1.92;;;17.00;99.90;;;;;;5025906;28;20749;-85
2023/07/26 08:58:16;;;;;;;3.53;2.03;;;17.00;99.90;;;;;;5026513;28;20205;-85
2023/07/26 09:00:45;;;;;;;5.53;2.00;;;17.00;99.90;;;;;;5026378;28;20197;-84
2023/07/26 09:03:14;;;;;;;7.13;2.22;;;17.00;99.90;;;;;;5026500;28;20189;-84
2023/07/26 09:05:42;;;;;;;4.00;2.17;;;16.90;99.90;;;;;;5008783;28;20277;-84
2023/07/26 09:08:11;;;;;;;3.90;1.90;;;17.00;99.90;;;;;;5024997;28;20961;-84
2023/07/26 09:10:40;;;;;;;5.22;2.20;;;17.00;99.90;;;;;;5026347;28;20273;-84
2023/07/26 09:13:13;;;;;;;5.85;2.00;;;17.10;99.90;;;;;;5026731;28;20217;-85
2023/07/26 09:15:44;;;;;;;5.25;2.00;;;17.00;99.90;;;;;;5009544;28;20186;-84
2023/07/26 09:18:14;;;;;;;3.55;1.90;;;17.00;99.90;;;;;;5008775;28;20297;-85
2023/07/26 09:20:42;;;;;;;3.92;2.00;;;17.10;99.90;;;;;;5024989;28;20223;-84
2023/07/26 09:23:12;;;;;;;2.72;1.90;;;17.20;99.90;;;;;;5026179;28;20189;-84
2023/07/26 09:25:42;;;;;;;4.93;2.58;;;17.10;99.90;;;;;;5026220;28;20182;-85
2023/07/26 09:28:15;;;;;;;4.20;2.10;;;17.20;99.90;;;;;;5024729;28;20275;-85
2023/07/26 09:30:48;;;;;;;4.22;2.38;;;17.20;99.90;;;;;;5025950;28;20174;-86
2023/07/26 09:33:17;;;;;;;4.68;2.38;;;17.30;99.90;;;;;;5007621;28;20602;-85
2023/07/26 09:35:46;;;;;;;4.88;2.05;;;17.50;99.90;;;;;;5012293;28;20195;-84
2023/07/26 09:38:16;;;;;;;9.98;2.30;;;17.60;99.90;;;;;;5041335;28;20183;-84
2023/07/26 09:40:45;;;;;;;5.53;2.40;;;17.70;99.90;;;;;;5041847;28;20190;-84
2023/07/26 09:43:12;;;;;;;3.85;2.15;;;17.70;99.90;;;;;;5025631;28;20595;-84
2023/07/26 09:45:41;;;;;;;5.18;2.40;;;17.60;99.90;;;;;;5034677;28;20194;-84
2023/07/26 09:48:11;;;;;;;3.88;2.17;;;17.60;99.90;;;;;;5024513;28;20290;-84
2023/07/26 09:50:45;;;;;;;6.88;1.88;;;17.70;99.90;;;;;;5020756;28;20261;-85
2023/07/26 09:53:21;;;;;;;4.95;2.40;;;17.70;99.90;;;;;;5004865;28;20202;-84
2023/07/26 09:55:51;;;;;;;3.30;2.28;;;17.80;99.90;;;;;;5004702;28;20214;-84
2023/07/26 09:58:23;;;;;;;4.20;1.92;;;17.80;99.90;;;;;;5004827;28;20186;-84
2023/07/26 10:00:55;;;;;;;4.75;2.00;;;17.80;99.90;;;;;;5005668;28;20221;-83
2023/07/26 10:03:23;;;;;;;5.28;2.00;;;17.90;99.90;;;;;;5008327;28;20218;-84
2023/07/26 10:05:54;;;;;;;3.40;2.05;;;18.10;99.90;;;;;;5025219;28;20247;-83
2023/07/26 10:08:22;;;;;;;3.25;1.80;;;18.20;99.90;;;;;;5015031;28;20195;-84
2023/07/26 10:10:52;;;;;;;3.25;1.70;;;18.40;99.90;;;;;;5009216;28;20195;-83
2023/07/26 10:13:21;;;;;;;5.47;2.10;;;18.40;99.90;;;;;;5007711;28;20830;-84
2023/07/26 10:15:51;;;;;;;2.15;1.50;;;18.50;99.90;;;;;;5009313;28;20295;-84
2023/07/26 10:18:24;;;;;;;2.90;1.90;;;18.80;99.90;;;;;;5009463;28;20167;-84
2023/07/26 10:20:58;;;;;;;3.38;1.92;;;18.60;99.90;;;;;;5009428;28;20193;-84
2023/07/26 10:23:26;;;;;;;3.95;1.67;;;18.70;99.90;;;;;;5009394;28;20298;-85
2023/07/26 10:25:57;;;;;;;3.70;1.67;;;18.60;99.90;;;;;;5010108;28;20645;-84
2023/07/26 10:28:25;;;;;;;3.90;1.88;;;18.70;99.90;;;;;;5007841;28;20187;-84
2023/07/26 10:30:53;;;;;;;2.60;1.70;;;18.70;99.90;;;;;;5024721;28;20189;-83
2023/07/26 10:33:21;;;;;;;4.72;1.88;;;18.90;99.90;;;;;;5026361;28;20198;-84
2023/07/26 10:35:49;;;;;;;3.33;1.80;;;18.90;99.90;;;;;;5042955;28;20178;-83
2023/07/26 10:38:19;;;;;;;4.10;1.83;;;18.90;99.90;;;;;;5027358;28;20668;-84
2023/07/26 10:40:47;;;;;;;4.47;2.08;;;18.90;99.90;;;;;;5037144;28;20214;-84
2023/07/26 10:43:22;;;;;;;3.05;2.03;;;19.00;99.90;;;;;;5026475;28;20219;-83
2023/07/26 10:45:53;;;;;;;5.15;1.65;;;18.70;99.90;;;;;;5022244;28;20243;-84
2023/07/26 10:48:48;;;;;;;3.08;1.88;;;18.90;99.90;;;;;;5018317;28;20699;-84
2023/07/26 10:51:23;;;;;;;4.80;1.70;;;19.00;99.90;;;;;;5028446;27;20224;-84
2023/07/26 10:53:53;;;;;;;3.35;1.70;;;19.00;99.90;;;;;;5024834;28;20205;-84
2023/07/26 10:56:31;;;;;;;1.60;1.30;;;19.10;99.90;;;;;;5012975;28;20199;-83
2023/07/26 10:59:22;;;;;;;1.73;1.35;;;19.50;99.90;;;;;;5008501;28;20640;-85
2023/07/26 11:02:03;;;;;;;4.40;1.90;;;19.20;99.90;;;;;;5014396;28;20261;-84
2023/07/26 11:04:31;;;;;;;3.70;1.83;;;19.10;99.90;;;;;;5026502;28;20189;-84
2023/07/26 11:07:02;;;;;;;2.75;1.55;;;19.00;99.90;;;;;;5028228;28;20609;-84
2023/07/26 11:09:32;;;;;;;6.30;1.70;;;19.10;99.90;;;;;;5026779;28;20197;-83
2023/07/26 11:12:02;;;;;;;4.57;1.65;;;19.30;99.90;;;;;;5027074;28;20217;-85
2023/07/26 11:14:32;;;;;;;2.97;1.65;;;19.50;99.90;;;;;;5023773;28;20203;-84
2023/07/26 11:17:11;;;;;;;3.20;1.50;;;19.70;99.90;;;;;;5027453;28;20680;-84
2023/07/26 11:19:48;;;;;;;1.65;1.48;;;19.70;99.90;;;;;;5023051;28;20594;-85
2023/07/26 11:22:20;;;;;;;2.10;1.50;;;19.80;99.90;;;;;;5006900;28;20261;-84
2023/07/26 11:24:49;;;;;;;4.65;1.70;;;20.00;99.90;;;;;;5008101;28;20285;-84
2023/07/26 11:27:17;;;;;;;3.90;1.85;;;19.90;99.90;;;;;;5015226;28;20201;-84
2023/07/26 11:29:45;;;;;;;2.97;1.50;;;19.80;99.90;;;;;;5026373;28;20667;-85
2023/07/26 11:32:24;;;;;;;3.90;1.88;;;19.60;99.90;;;;;;5009281;28;20198;-83
2023/07/26 11:34:59;;;;;;;5.15;1.50;;;19.60;99.90;;;;;;5042270;28;20218;-84
2023/07/26 11:37:26;;;;;;;4.53;1.60;;;19.50;99.90;;;;;;5024373;28;20258;-85
2023/07/26 11:40:11;;;;;;;2.47;1.52;;;19.50;99.90;;;;;;5035268;28;20195;-84
2023/07/26 11:42:38;;;;;;;1.50;1.30;;;19.80;99.90;;;;;;5026062;28;20194;-84
2023/07/26 11:45:07;;;;;;;5.78;1.85;;;20.30;99.90;;;;;;5026404;28;20253;-85
2023/07/26 11:47:35;;;;;;;2.95;1.40;;;20.70;99.90;;;;;;5006193;28;20195;-84
2023/07/26 11:50:04;;;;;;;2.13;1.40;;;20.70;99.90;;;;;;5034470;28;20194;-84
2023/07/26 11:52:32;;;;;;;3.58;1.65;;;20.40;99.90;;;;;;5025014;28;20212;-83
2023/07/26 11:55:01;;;;;;;2.53;1.75;;;20.10;99.90;;;;;;5019221;28;20237;-84
2023/07/26 11:57:30;;;;;;;2.47;1.23;;;20.10;99.90;;;;;;5019022;28;20186;-85
2023/07/26 12:00:01;;;;;;;3.92;1.40;;;20.40;99.90;;;;;;5018964;28;20189;-84
2023/07/26 12:02:38;;;;;;;3.65;1.40;;;20.50;99.90;;;;;;5017266;28;20220;-85
2023/07/26 12:05:19;;;;;;;2.80;1.48;;;20.40;99.90;;;;;;5018938;28;20209;-83
2023/07/26 12:07:49;;;;;;;2.15;1.40;;;20.20;99.90;;;;;;5018749;27;20183;-85
2023/07/26 12:10:27;;;;;;;3.17;1.25;;;20.50;99.90;;;;;;5016492;28;20186;-84
2023/07/26 12:12:56;;;;;;;3.15;1.38;;;20.70;99.90;;;;;;5016726;28;20657;-84
2023/07/26 12:15:25;;;;;;;2.92;1.38;;;20.90;99.90;;;;;;5018036;28;20233;-83
2023/07/26 12:18:03;;;;;;;2.42;1.67;;;20.90;99.90;;;;;;5013049;28;20196;-84
2023/07/26 12:20:31;;;;;;;2.70;1.50;;;20.50;99.90;;;;;;5016368;28;20751;-83
2023/07/26 12:23:21;;;;;;;3.92;1.52;;;20.30;99.90;;;;;;5016936;28;20186;-84
2023/07/26 12:25:57;;;;;;;2.45;1.42;;;20.20;99.90;;;;;;5017740;28;20558;-84
2023/07/26 12:28:24;;;;;;;3.42;1.42;;;20.10;99.90;;;;;;5019470;28;20193;-84
2023/07/26 12:30:57;;;;;;;2.15;1.40;;;20.10;99.90;;;;;;5017423;28;20659;-84
2023/07/26 12:33:25;;;;;;;3.95;1.67;;;20.10;99.90;;;;;;5020305;28;20242;-85
2023/07/26 12:35:55;;;;;;;3.33;1.30;;;20.10;99.90;;;;;;5027048;28;20554;-84
2023/07/26 12:38:23;;;;;;;8.20;1.58;;;20.20;99.90;;;;;;5026795;28;20193;-84
2023/07/26 12:40:52;;;;;;;5.30;1.48;;;20.40;99.90;;;;;;5026640;28;20178;-85
2023/07/26 12:43:28;;;;;;;4.20;1.45;;;20.80;99.90;;;;;;5025048;28;20239;-84
2023/07/26 12:45:58;;;;;;;2.20;1.30;;;21.30;99.90;;;;;;5025206;28;20181;-85
2023/07/26 12:48:28;;;;;;;5.07;1.45;;;21.40;99.90;;;;;;5026560;28;20258;-85
2023/07/26 12:50:56;;;;;;;2.55;1.52;;;20.90;99.90;;;;;;5026874;28;20674;-84
2023/07/26 12:53:26;;;;;;;2.25;1.15;;;20.50;99.90;;;;;;5008719;28;20186;-84
2023/07/26 12:55:54;;;;;;;4.35;1.50;;;20.50;99.90;;;;;;5026726;28;20182;-84